Time;durP1;ratioP1;P1;durP2;ratioP2;P2;SDS_P1;SDS_P2;PMS_P1;PMS_P2;Temp;Humidity;BMP_temperature;BMP_pressure;BME280_temperature;BME280_humidity;BME280_pressure;Samples;Min_cycle;Max_cycle;Signal;HPM_P1;HPM_P2
2023/09/30 00:01:09;;;;;;;6.88;3.15;;;;;;;;;;5094090;28;20042;-68
2023/09/30 00:03:35;;;;;;;8.63;3.83;;;;;;;;;;5093916;28;20034;-68
2023/09/30 00:06:02;;;;;;;6.80;3.53;;;;;;;;;;5093738;28;20396;-68
2023/09/30 00:08:28;;;;;;;6.22;3.20;;;;;;;;;;5093488;28;20069;-67
2023/09/30 00:10:54;;;;;;;7.63;3.67;;;;;;;;;;5093570;28;20030;-68
2023/09/30 00:13:28;;;;;;;6.55;3.38;;;;;;;;;;5093789;28;20024;-68
2023/09/30 00:15:54;;;;;;;7.13;3.55;;;;;;;;;;5093463;28;20036;-68
2023/09/30 00:18:20;;;;;;;6.45;3.53;;;;;;;;;;5093834;28;20016;-68
2023/09/30 00:20:47;;;;;;;7.28;3.80;;;;;;;;;;5093219;28;20036;-68
2023/09/30 00:23:14;;;;;;;8.65;3.50;;;;;;;;;;5093076;28;20024;-68
2023/09/30 00:25:40;;;;;;;8.35;3.63;;;;;;;;;;5093371;28;20495;-68
2023/09/30 00:28:06;;;;;;;7.45;3.33;;;;;;;;;;5092615;28;20046;-68
2023/09/30 00:30:33;;;;;;;7.43;3.55;;;;;;;;;;5093260;28;20028;-68
2023/09/30 00:33:00;;;;;;;7.57;3.42;;;;;;;;;;5093302;28;20020;-68
2023/09/30 00:35:26;;;;;;;7.70;3.35;;;;;;;;;;5092736;28;20036;-68
2023/09/30 00:37:53;;;;;;;6.95;3.50;;;;;;;;;;5093208;28;20489;-68
2023/09/30 00:40:19;;;;;;;6.00;3.25;;;;;;;;;;5093088;28;20030;-68
2023/09/30 00:42:46;;;;;;;8.15;3.40;;;;;;;;;;5092972;28;20478;-68
2023/09/30 00:45:12;;;;;;;6.95;3.55;;;;;;;;;;5093030;28;20020;-68
2023/09/30 00:47:39;;;;;;;6.93;3.10;;;;;;;;;;5093020;28;20016;-68
2023/09/30 00:50:08;;;;;;;9.93;3.53;;;;;;;;;;5074715;28;20036;-68
2023/09/30 00:52:35;;;;;;;6.93;3.35;;;;;;;;;;5092875;28;20016;-68
2023/09/30 00:55:02;;;;;;;5.68;3.30;;;;;;;;;;5092655;28;20058;-68
2023/09/30 00:57:30;;;;;;;7.13;3.80;;;;;;;;;;5093007;28;20028;-68
2023/09/30 00:59:57;;;;;;;8.93;3.40;;;;;;;;;;5092940;28;20500;-68
2023/09/30 01:02:23;;;;;;;6.90;3.58;;;;;;;;;;5092871;28;20030;-68
2023/09/30 01:04:50;;;;;;;8.93;3.45;;;;;;;;;;5092620;28;20024;-67
2023/09/30 01:07:17;;;;;;;7.45;3.50;;;;;;;;;;5092751;28;20508;-68
2023/09/30 01:09:43;;;;;;;6.82;3.30;;;;;;;;;;5092997;28;20019;-68
2023/09/30 01:12:10;;;;;;;7.15;3.25;;;;;;;;;;5092590;28;20519;-68
2023/09/30 01:14:42;;;;;;;6.93;3.50;;;;;;;;;;5092518;28;20485;-68
2023/09/30 01:17:08;;;;;;;9.65;3.60;;;;;;;;;;5092548;28;20036;-68
2023/09/30 01:19:35;;;;;;;5.85;3.42;;;;;;;;;;5092358;28;20030;-68
2023/09/30 01:22:04;;;;;;;8.27;3.47;;;;;;;;;;5074589;28;20021;-68
2023/09/30 01:24:30;;;;;;;7.07;3.25;;;;;;;;;;5075037;28;20023;-68
2023/09/30 01:26:57;;;;;;;7.50;3.60;;;;;;;;;;5092511;28;20024;-68
2023/09/30 01:29:25;;;;;;;6.53;3.30;;;;;;;;;;5092577;28;20028;-68
2023/09/30 01:31:53;;;;;;;7.47;3.42;;;;;;;;;;5092742;28;20030;-68
2023/09/30 01:34:19;;;;;;;8.18;3.90;;;;;;;;;;5092087;28;20031;-68
2023/09/30 01:36:46;;;;;;;8.20;3.88;;;;;;;;;;5092393;28;20040;-68
2023/09/30 01:39:13;;;;;;;8.50;3.08;;;;;;;;;;5093966;28;20014;-68
2023/09/30 01:41:40;;;;;;;6.78;3.33;;;;;;;;;;5096441;28;20024;-68
2023/09/30 01:44:07;;;;;;;5.53;3.30;;;;;;;;;;5078173;28;20035;-68
2023/09/30 01:46:33;;;;;;;6.70;3.80;;;;;;;;;;5096418;28;20216;-68
2023/09/30 01:49:00;;;;;;;7.72;3.75;;;;;;;;;;5096038;28;20028;-68
2023/09/30 01:51:27;;;;;;;7.53;3.17;;;;;;;;;;5096237;28;20028;-68
2023/09/30 01:53:54;;;;;;;5.97;3.38;;;;;;;;;;5096293;28;20085;-68
2023/09/30 01:56:20;;;;;;;7.45;3.50;;;;;;;;;;5096069;28;20455;-68
2023/09/30 01:58:47;;;;;;;7.10;3.28;;;;;;;;;;5096095;28;20020;-68
2023/09/30 02:01:13;;;;;;;7.90;3.78;;;;;;;;;;5096251;28;20383;-68
2023/09/30 02:03:40;;;;;;;9.25;3.95;;;;;;;;;;5095977;28;20092;-68
2023/09/30 02:06:06;;;;;;;8.02;4.05;;;;;;;;;;5096254;28;20020;-68
2023/09/30 02:08:32;;;;;;;7.72;3.50;;;;;;;;;;5095875;28;20024;-68
2023/09/30 02:10:59;;;;;;;6.15;3.30;;;;;;;;;;5096181;28;20024;-68
2023/09/30 02:13:25;;;;;;;6.32;3.35;;;;;;;;;;5077761;28;20055;-68
2023/09/30 02:15:51;;;;;;;6.93;3.40;;;;;;;;;;5095667;28;20536;-68
2023/09/30 02:18:18;;;;;;;9.00;3.55;;;;;;;;;;5095754;28;20020;-68
2023/09/30 02:20:44;;;;;;;7.90;3.75;;;;;;;;;;5077551;28;20027;-68
2023/09/30 02:23:11;;;;;;;10.55;3.58;;;;;;;;;;5095968;28;20027;-68
2023/09/30 02:25:38;;;;;;;8.05;3.63;;;;;;;;;;5095616;28;20028;-68
2023/09/30 02:28:04;;;;;;;7.78;3.92;;;;;;;;;;5095455;28;20026;-68
2023/09/30 02:30:30;;;;;;;9.07;3.45;;;;;;;;;;5095742;28;20034;-68
2023/09/30 02:32:57;;;;;;;7.47;3.28;;;;;;;;;;5095420;28;20065;-68
2023/09/30 02:35:23;;;;;;;6.10;3.40;;;;;;;;;;5094214;28;20475;-68
2023/09/30 02:37:51;;;;;;;6.43;3.45;;;;;;;;;;5095368;28;20042;-68
2023/09/30 02:40:18;;;;;;;7.05;3.42;;;;;;;;;;5095368;28;20496;-68
2023/09/30 02:42:46;;;;;;;6.97;3.15;;;;;;;;;;5095318;28;20197;-68
2023/09/30 02:45:13;;;;;;;8.95;3.88;;;;;;;;;;5095183;28;20028;-68
2023/09/30 02:47:40;;;;;;;9.55;4.00;;;;;;;;;;5094839;28;20499;-68
2023/09/30 02:50:16;;;;;;;7.53;3.50;;;;;;;;;;5076829;28;20503;-68
2023/09/30 02:52:42;;;;;;;7.25;3.80;;;;;;;;;;5095137;28;20024;-68
2023/09/30 02:55:09;;;;;;;6.10;3.67;;;;;;;;;;5094880;28;20044;-68
2023/09/30 02:57:36;;;;;;;6.72;3.65;;;;;;;;;;5095237;28;20055;-68
2023/09/30 03:00:23;;;;;;;12.38;3.90;;;;;;;;;;5095109;28;20020;-68
2023/09/30 03:02:50;;;;;;;5.90;3.35;;;;;;;;;;5093752;28;20479;-68
2023/09/30 03:05:17;;;;;;;7.80;3.83;;;;;;;;;;5094771;28;20024;-68
2023/09/30 03:07:44;;;;;;;8.65;4.05;;;;;;;;;;5094857;28;20020;-68
2023/09/30 03:10:10;;;;;;;7.20;3.88;;;;;;;;;;5094596;28;20467;-68
2023/09/30 03:12:36;;;;;;;7.65;3.83;;;;;;;;;;5094787;28;20026;-68
2023/09/30 03:15:04;;;;;;;9.40;3.85;;;;;;;;;;5094421;28;20032;-68
2023/09/30 03:17:36;;;;;;;9.50;3.85;;;;;;;;;;5094642;28;20480;-68
2023/09/30 03:20:07;;;;;;;8.88;3.95;;;;;;;;;;5094550;28;20012;-68
2023/09/30 03:22:33;;;;;;;8.50;4.28;;;;;;;;;;5094522;28;20405;-68
2023/09/30 03:25:00;;;;;;;8.40;4.03;;;;;;;;;;5094751;28;20020;-68
2023/09/30 03:27:26;;;;;;;7.63;4.05;;;;;;;;;;5076512;28;20042;-68
2023/09/30 03:29:53;;;;;;;10.88;4.15;;;;;;;;;;5092821;28;20023;-68
2023/09/30 03:32:19;;;;;;;8.48;4.07;;;;;;;;;;5094301;28;20020;-68
2023/09/30 03:34:46;;;;;;;8.68;4.18;;;;;;;;;;5094535;28;20024;-68
2023/09/30 03:37:12;;;;;;;9.52;4.28;;;;;;;;;;5094304;28;20036;-68
2023/09/30 03:39:40;;;;;;;7.35;3.38;;;;;;;;;;5094254;28;20020;-68
2023/09/30 03:42:11;;;;;;;10.65;4.05;;;;;;;;;;5094395;28;20016;-68
2023/09/30 03:44:38;;;;;;;8.38;3.63;;;;;;;;;;5093679;28;20024;-68
2023/09/30 03:47:05;;;;;;;7.40;3.72;;;;;;;;;;5094131;28;20020;-68
2023/09/30 03:49:31;;;;;;;6.97;3.65;;;;;;;;;;5094068;28;20045;-68
2023/09/30 03:51:57;;;;;;;11.63;4.60;;;;;;;;;;5093942;28;20020;-68
2023/09/30 03:54:24;;;;;;;7.47;3.92;;;;;;;;;;5093762;28;20038;-68
2023/09/30 03:56:50;;;;;;;7.55;3.65;;;;;;;;;;5093798;28;20040;-68
2023/09/30 03:59:17;;;;;;;8.32;4.07;;;;;;;;;;5093732;28;20036;-68
2023/09/30 04:01:44;;;;;;;7.95;4.05;;;;;;;;;;5092383;28;20038;-68
2023/09/30 04:04:10;;;;;;;7.47;3.90;;;;;;;;;;5092863;28;20021;-68
2023/09/30 04:06:38;;;;;;;8.30;3.92;;;;;;;;;;5093717;28;20034;-68
2023/09/30 04:09:10;;;;;;;9.40;4.28;;;;;;;;;;5093647;28;20031;-68
2023/09/30 04:11:37;;;;;;;9.95;3.60;;;;;;;;;;5093496;28;20028;-68
2023/09/30 04:14:04;;;;;;;8.77;3.88;;;;;;;;;;5093507;28;20020;-68
2023/09/30 04:16:30;;;;;;;11.05;4.38;;;;;;;;;;5093323;28;20036;-68
2023/09/30 04:18:57;;;;;;;6.40;3.45;;;;;;;;;;5093515;28;20388;-68
2023/09/30 04:21:23;;;;;;;8.40;4.25;;;;;;;;;;5093635;28;20034;-68
2023/09/30 04:23:49;;;;;;;6.53;3.58;;;;;;;;;;5075500;28;20024;-68
2023/09/30 04:26:15;;;;;;;7.45;3.90;;;;;;;;;;5093638;28;20034;-68
2023/09/30 04:28:43;;;;;;;7.25;3.65;;;;;;;;;;5092868;28;20408;-68
2023/09/30 04:31:10;;;;;;;7.55;3.47;;;;;;;;;;5093490;28;20016;-68
2023/09/30 04:33:36;;;;;;;8.52;3.92;;;;;;;;;;5093142;28;20038;-68
2023/09/30 04:36:05;;;;;;;7.18;3.35;;;;;;;;;;5093265;28;20036;-68
2023/09/30 04:38:31;;;;;;;8.57;4.20;;;;;;;;;;5093171;28;20024;-68
2023/09/30 04:40:57;;;;;;;6.78;3.72;;;;;;;;;;5093446;28;20028;-68
2023/09/30 04:43:24;;;;;;;9.65;4.07;;;;;;;;;;5092824;28;20024;-68
2023/09/30 04:45:53;;;;;;;9.23;3.50;;;;;;;;;;5092999;28;20017;-68
2023/09/30 04:48:19;;;;;;;7.75;3.90;;;;;;;;;;5093216;28;20032;-68
2023/09/30 04:50:45;;;;;;;6.97;3.50;;;;;;;;;;5074810;28;20030;-68
2023/09/30 04:53:12;;;;;;;10.00;3.60;;;;;;;;;;5092789;28;20403;-67
2023/09/30 04:55:39;;;;;;;8.65;4.03;;;;;;;;;;5092884;28;20050;-68
2023/09/30 04:58:05;;;;;;;7.45;3.78;;;;;;;;;;5091498;28;20096;-68
2023/09/30 05:00:31;;;;;;;8.13;3.65;;;;;;;;;;5093060;28;20038;-68
2023/09/30 05:02:59;;;;;;;6.95;3.97;;;;;;;;;;5092850;28;20362;-68
2023/09/30 05:05:25;;;;;;;8.65;3.65;;;;;;;;;;5074661;28;20023;-68
2023/09/30 05:07:51;;;;;;;6.82;3.60;;;;;;;;;;5092817;28;20049;-68
2023/09/30 05:10:19;;;;;;;8.68;4.38;;;;;;;;;;5092600;28;20031;-68
2023/09/30 05:12:45;;;;;;;9.32;3.72;;;;;;;;;;5092285;28;20046;-67
2023/09/30 05:15:13;;;;;;;8.02;3.70;;;;;;;;;;5092058;28;20473;-68
2023/09/30 05:17:39;;;;;;;7.75;4.18;;;;;;;;;;5092677;28;20028;-68
2023/09/30 05:20:06;;;;;;;9.98;3.78;;;;;;;;;;5092875;28;20026;-68
2023/09/30 05:22:34;;;;;;;8.85;4.38;;;;;;;;;;5092631;28;20024;-68
2023/09/30 05:25:01;;;;;;;7.35;4.10;;;;;;;;;;5092713;28;20530;-68
2023/09/30 05:27:27;;;;;;;9.50;4.13;;;;;;;;;;5092150;28;20025;-68
2023/09/30 05:29:55;;;;;;;6.60;3.85;;;;;;;;;;5092572;28;20034;-68
2023/09/30 05:32:22;;;;;;;7.70;4.15;;;;;;;;;;5092548;28;20341;-68
2023/09/30 05:34:48;;;;;;;8.43;4.43;;;;;;;;;;5074315;28;20024;-68
2023/09/30 05:37:15;;;;;;;8.30;3.95;;;;;;;;;;5092444;28;20047;-68
2023/09/30 05:39:41;;;;;;;9.63;4.10;;;;;;;;;;5092511;28;20027;-67
2023/09/30 05:42:07;;;;;;;11.63;4.38;;;;;;;;;;5092026;28;20176;-68
2023/09/30 05:44:34;;;;;;;8.10;4.07;;;;;;;;;;5092452;28;20032;-68
2023/09/30 05:47:00;;;;;;;6.75;3.58;;;;;;;;;;5092260;28;20043;-68
2023/09/30 05:49:26;;;;;;;7.95;4.00;;;;;;;;;;5092303;28;20407;-68
2023/09/30 05:51:53;;;;;;;9.30;3.90;;;;;;;;;;5092635;28;20072;-68
2023/09/30 05:54:19;;;;;;;14.38;3.75;;;;;;;;;;5090963;28;20048;-68
2023/09/30 05:56:46;;;;;;;7.85;4.78;;;;;;;;;;5091912;28;20028;-68
2023/09/30 05:59:13;;;;;;;10.98;4.07;;;;;;;;;;5092437;28;20016;-68
2023/09/30 06:01:40;;;;;;;11.57;4.13;;;;;;;;;;5092090;28;20032;-67
2023/09/30 06:04:07;;;;;;;7.97;3.90;;;;;;;;;;5074482;28;20020;-68
2023/09/30 06:06:33;;;;;;;9.25;4.30;;;;;;;;;;5092093;28;20039;-68
2023/09/30 06:08:59;;;;;;;7.57;4.15;;;;;;;;;;5091790;28;20020;-68
2023/09/30 06:11:28;;;;;;;10.43;3.90;;;;;;;;;;5092135;28;20034;-68
2023/09/30 06:13:55;;;;;;;10.05;4.38;;;;;;;;;;5074107;28;20358;-68
2023/09/30 06:16:23;;;;;;;11.07;3.95;;;;;;;;;;5092058;28;20020;-68
2023/09/30 06:18:49;;;;;;;11.95;4.82;;;;;;;;;;5092289;28;20368;-68
2023/09/30 06:21:20;;;;;;;8.88;4.32;;;;;;;;;;5092203;28;20027;-68
2023/09/30 06:23:48;;;;;;;12.75;3.90;;;;;;;;;;5091727;28;20488;-68
2023/09/30 06:26:16;;;;;;;6.43;3.70;;;;;;;;;;5092995;28;20024;-68
2023/09/30 06:28:43;;;;;;;7.40;4.38;;;;;;;;;;5095428;28;20495;-68
2023/09/30 06:31:09;;;;;;;13.55;4.63;;;;;;;;;;5095569;28;20023;-68
2023/09/30 06:33:38;;;;;;;10.25;4.45;;;;;;;;;;5095379;28;20504;-68
2023/09/30 06:36:16;;;;;;;9.52;4.78;;;;;;;;;;5095478;28;20020;-68
2023/09/30 06:38:44;;;;;;;8.27;3.83;;;;;;;;;;5095112;28;20020;-67
2023/09/30 06:41:16;;;;;;;7.10;4.10;;;;;;;;;;5094225;28;20020;-68
2023/09/30 06:43:42;;;;;;;9.15;4.18;;;;;;;;;;5095382;28;20024;-68
2023/09/30 06:46:09;;;;;;;8.23;3.95;;;;;;;;;;5095132;28;20040;-68
2023/09/30 06:48:35;;;;;;;8.90;4.80;;;;;;;;;;5095622;28;20101;-68
2023/09/30 06:51:02;;;;;;;7.93;4.07;;;;;;;;;;5095116;28;20085;-68
2023/09/30 06:53:29;;;;;;;8.85;4.53;;;;;;;;;;5094705;28;20050;-68
2023/09/30 06:55:55;;;;;;;7.05;4.50;;;;;;;;;;5095056;28;20028;-68
2023/09/30 06:58:22;;;;;;;11.43;4.82;;;;;;;;;;5095143;28;20032;-69
2023/09/30 07:00:49;;;;;;;8.52;4.03;;;;;;;;;;5095273;28;20020;-68
2023/09/30 07:03:16;;;;;;;8.77;4.32;;;;;;;;;;5094090;28;20028;-68
2023/09/30 07:05:42;;;;;;;9.82;4.65;;;;;;;;;;5076904;28;20423;-68
2023/09/30 07:08:10;;;;;;;7.72;3.60;;;;;;;;;;5094441;28;20016;-68
2023/09/30 07:10:36;;;;;;;10.00;4.93;;;;;;;;;;5093625;28;20028;-68
2023/09/30 07:13:03;;;;;;;10.63;4.40;;;;;;;;;;5095141;28;20024;-68
2023/09/30 07:15:30;;;;;;;9.63;4.43;;;;;;;;;;5094503;28;20477;-68
2023/09/30 07:17:56;;;;;;;8.65;3.85;;;;;;;;;;5094996;28;20038;-68
2023/09/30 07:20:22;;;;;;;7.25;4.07;;;;;;;;;;5094553;28;20069;-68
2023/09/30 07:22:49;;;;;;;8.68;4.10;;;;;;;;;;5094210;28;20027;-68
2023/09/30 07:25:16;;;;;;;7.32;3.75;;;;;;;;;;5094738;28;20382;-68
2023/09/30 07:27:44;;;;;;;9.65;3.88;;;;;;;;;;5094389;28;20032;-68
2023/09/30 07:30:12;;;;;;;7.38;3.90;;;;;;;;;;5094298;28;20032;-68
2023/09/30 07:32:38;;;;;;;9.80;3.78;;;;;;;;;;5094342;28;20024;-68
2023/09/30 07:35:05;;;;;;;8.13;3.78;;;;;;;;;;5094183;28;20035;-68
2023/09/30 07:37:31;;;;;;;9.00;4.10;;;;;;;;;;5093619;28;20023;-68
2023/09/30 07:39:58;;;;;;;6.00;3.55;;;;;;;;;;5076330;28;20088;-68
2023/09/30 07:42:24;;;;;;;6.75;4.13;;;;;;;;;;5094607;28;20032;-68
2023/09/30 07:44:50;;;;;;;7.65;3.97;;;;;;;;;;5094105;28;20152;-68
2023/09/30 07:47:17;;;;;;;9.23;4.22;;;;;;;;;;5075853;28;20050;-68
2023/09/30 07:49:43;;;;;;;6.60;3.63;;;;;;;;;;5094052;28;20023;-68
2023/09/30 07:52:10;;;;;;;9.30;3.90;;;;;;;;;;5093535;28;20381;-68
2023/09/30 07:54:37;;;;;;;7.70;3.97;;;;;;;;;;5093781;28;20042;-68
2023/09/30 07:57:03;;;;;;;7.15;3.95;;;;;;;;;;5094202;28;20024;-68
2023/09/30 07:59:30;;;;;;;7.68;4.50;;;;;;;;;;5092503;28;20020;-68
2023/09/30 08:01:57;;;;;;;5.90;4.00;;;;;;;;;;5093826;28;20561;-68
2023/09/30 08:04:23;;;;;;;8.02;3.95;;;;;;;;;;5075709;28;20388;-68
2023/09/30 08:06:50;;;;;;;7.32;4.32;;;;;;;;;;5093364;28;20043;-68
2023/09/30 08:09:18;;;;;;;6.90;3.67;;;;;;;;;;5093629;28;20030;-68
2023/09/30 08:11:45;;;;;;;7.38;3.78;;;;;;;;;;5093659;28;20024;-68
2023/09/30 08:14:11;;;;;;;6.43;3.72;;;;;;;;;;5093628;28;20024;-68
2023/09/30 08:16:38;;;;;;;6.05;4.00;;;;;;;;;;5093385;28;20040;-68
2023/09/30 08:19:04;;;;;;;7.85;3.90;;;;;;;;;;5093511;28;20366;-69
2023/09/30 08:21:31;;;;;;;5.85;3.72;;;;;;;;;;5093343;28;20022;-68
2023/09/30 08:23:58;;;;;;;7.13;4.40;;;;;;;;;;5093662;28;20027;-68
2023/09/30 08:26:24;;;;;;;13.73;4.38;;;;;;;;;;5093413;28;20380;-69
2023/09/30 08:28:50;;;;;;;7.10;4.82;;;;;;;;;;5093238;28;20020;-68
2023/09/30 08:31:17;;;;;;;7.68;4.25;;;;;;;;;;5093306;28;20036;-69
2023/09/30 08:33:45;;;;;;;6.90;4.30;;;;;;;;;;5093177;28;20392;-69
2023/09/30 08:36:12;;;;;;;8.05;4.72;;;;;;;;;;5091658;28;20024;-69
2023/09/30 08:38:39;;;;;;;8.27;4.32;;;;;;;;;;5093164;28;20489;-69
2023/09/30 08:41:07;;;;;;;9.60;4.35;;;;;;;;;;5093354;28;20035;-69
2023/09/30 08:43:40;;;;;;;7.22;4.35;;;;;;;;;;5093129;28;20020;-69
2023/09/30 08:46:07;;;;;;;6.40;4.20;;;;;;;;;;5092885;28;20496;-69
2023/09/30 08:48:34;;;;;;;8.10;4.22;;;;;;;;;;5092032;28;20038;-69
2023/09/30 08:51:01;;;;;;;7.72;4.22;;;;;;;;;;5093279;28;20030;-69
2023/09/30 08:53:29;;;;;;;12.73;4.63;;;;;;;;;;5074624;28;20052;-69
2023/09/30 08:55:55;;;;;;;7.45;4.13;;;;;;;;;;5092993;28;20361;-69
2023/09/30 08:58:26;;;;;;;5.88;3.67;;;;;;;;;;5092858;28;20016;-69
2023/09/30 09:00:53;;;;;;;8.82;4.78;;;;;;;;;;5093105;28;20026;-69
2023/09/30 09:03:20;;;;;;;6.25;4.18;;;;;;;;;;5092431;28;20077;-69
2023/09/30 09:05:47;;;;;;;6.30;3.88;;;;;;;;;;5092897;28;20036;-69
2023/09/30 09:08:14;;;;;;;9.73;4.20;;;;;;;;;;5092801;28;20480;-69
2023/09/30 09:10:54;;;;;;;5.80;4.05;;;;;;;;;;5092911;28;20027;-70
2023/09/30 09:13:20;;;;;;;6.25;4.18;;;;;;;;;;5092762;28;20024;-69
2023/09/30 09:15:46;;;;;;;8.93;4.28;;;;;;;;;;5092585;28;20419;-69
2023/09/30 09:18:14;;;;;;;6.32;3.88;;;;;;;;;;5092681;28;20024;-69
2023/09/30 09:20:40;;;;;;;8.75;4.18;;;;;;;;;;5092594;28;20024;-70
2023/09/30 09:23:07;;;;;;;7.32;3.88;;;;;;;;;;5092894;28;20036;-70
2023/09/30 09:25:39;;;;;;;7.43;3.90;;;;;;;;;;5092615;28;20022;-69
2023/09/30 09:28:05;;;;;;;6.50;3.60;;;;;;;;;;5092656;28;20042;-69
2023/09/30 09:30:31;;;;;;;8.82;3.80;;;;;;;;;;5092829;28;20024;-69
2023/09/30 09:33:02;;;;;;;8.23;4.60;;;;;;;;;;5092182;28;20026;-69
2023/09/30 09:35:30;;;;;;;5.68;3.80;;;;;;;;;;5092488;28;20029;-69
2023/09/30 09:38:04;;;;;;;6.00;3.47;;;;;;;;;;5092547;28;20046;-69
2023/09/30 09:40:33;;;;;;;5.43;3.75;;;;;;;;;;5092764;28;20031;-70
2023/09/30 09:43:02;;;;;;;6.60;4.00;;;;;;;;;;5092565;28;20026;-69
2023/09/30 09:45:32;;;;;;;9.07;4.45;;;;;;;;;;5092459;28;20480;-69
2023/09/30 09:47:59;;;;;;;5.63;3.72;;;;;;;;;;5092387;28;20024;-69
2023/09/30 09:50:25;;;;;;;5.95;3.55;;;;;;;;;;5092462;28;20016;-69
2023/09/30 09:52:58;;;;;;;6.05;3.67;;;;;;;;;;5092218;28;20030;-69
2023/09/30 09:55:24;;;;;;;6.15;3.38;;;;;;;;;;5091132;28;20069;-69
2023/09/30 09:57:51;;;;;;;5.10;3.25;;;;;;;;;;5092620;28;20050;-69
2023/09/30 10:00:29;;;;;;;8.55;3.65;;;;;;;;;;5093662;28;20016;-69
2023/09/30 10:02:56;;;;;;;6.55;3.70;;;;;;;;;;5095940;28;20016;-69
2023/09/30 10:05:23;;;;;;;6.53;3.78;;;;;;;;;;5096065;28;20029;-69
2023/09/30 10:07:52;;;;;;;9.35;3.72;;;;;;;;;;5096059;28;20498;-69
2023/09/30 10:10:20;;;;;;;8.60;3.13;;;;;;;;;;5095909;28;20016;-69
2023/09/30 10:12:47;;;;;;;10.65;3.72;;;;;;;;;;5095917;28;20031;-69
2023/09/30 10:15:25;;;;;;;8.40;3.53;;;;;;;;;;5095803;28;20019;-69
2023/09/30 10:18:03;;;;;;;5.30;3.13;;;;;;;;;;5096209;28;20039;-69
2023/09/30 10:20:33;;;;;;;6.70;3.63;;;;;;;;;;5096019;28;20020;-70
2023/09/30 10:23:18;;;;;;;7.53;3.22;;;;;;;;;;5095689;28;20427;-70
2023/09/30 10:25:47;;;;;;;6.05;3.30;;;;;;;;;;5077501;28;20044;-69
2023/09/30 10:28:32;;;;;;;6.95;3.10;;;;;;;;;;5095458;28;20031;-69
2023/09/30 10:31:12;;;;;;;5.65;3.15;;;;;;;;;;5094075;28;20020;-69
2023/09/30 10:33:56;;;;;;;6.90;3.30;;;;;;;;;;5095664;28;20490;-69
2023/09/30 10:36:43;;;;;;;4.22;2.70;;;;;;;;;;5095472;28;20024;-69
2023/09/30 10:39:13;;;;;;;5.90;2.97;;;;;;;;;;5095471;28;20477;-70
2023/09/30 10:41:45;;;;;;;;;;;;;;;;;;5095896;28;20024;-70
2023/09/30 10:44:27;;;;;;;9.00;2.92;;;;;;;;;;5095665;28;19904;-70
2023/09/30 10:46:54;;;;;;;4.85;2.83;;;;;;;;;;5094036;28;20465;-69
2023/09/30 10:49:24;;;;;;;5.22;2.80;;;;;;;;;;5077003;28;20032;-70
2023/09/30 10:51:54;;;;;;;3.25;2.40;;;;;;;;;;5094052;28;20031;-70
2023/09/30 10:54:20;;;;;;;;;;;;;;;;;;5095344;28;20051;-69
2023/09/30 10:56:46;;;;;;;7.90;2.42;;;;;;;;;;5095092;28;19908;-69
2023/09/30 10:59:19;;;;;;;6.55;2.65;;;;;;;;;;5076539;28;20032;-70
2023/09/30 11:01:46;;;;;;;3.88;2.13;;;;;;;;;;5095324;28;20016;-69
2023/09/30 11:04:12;;;;;;;5.50;1.70;;;;;;;;;;5095001;28;20020;-70
2023/09/30 11:06:44;;;;;;;6.82;1.90;;;;;;;;;;5094914;28;20043;-69
2023/09/30 11:09:16;;;;;;;8.23;2.50;;;;;;;;;;5093592;28;20024;-70
2023/09/30 11:11:48;;;;;;;4.60;2.03;;;;;;;;;;5094214;28;20392;-70
2023/09/30 11:14:20;;;;;;;4.93;2.30;;;;;;;;;;5094664;28;20028;-70
2023/09/30 11:16:48;;;;;;;4.60;2.45;;;;;;;;;;5094663;28;20489;-69
2023/09/30 11:19:20;;;;;;;5.80;2.65;;;;;;;;;;5094486;28;20058;-70
2023/09/30 11:21:48;;;;;;;3.67;1.98;;;;;;;;;;5094568;28;20034;-69
2023/09/30 11:24:15;;;;;;;2.50;1.88;;;;;;;;;;5076371;28;20036;-69
2023/09/30 11:26:41;;;;;;;3.63;1.83;;;;;;;;;;5094327;28;20381;-70
2023/09/30 11:29:08;;;;;;;2.72;1.95;;;;;;;;;;5094168;28;20020;-70
2023/09/30 11:31:35;;;;;;;3.10;1.70;;;;;;;;;;5094461;28;20036;-70
2023/09/30 11:34:04;;;;;;;2.60;1.63;;;;;;;;;;5094379;28;20020;-70
2023/09/30 11:36:33;;;;;;;;;;;;;;;;;;5094678;28;20032;-70
2023/09/30 11:39:03;;;;;;;1.30;1.20;;;;;;;;;;5076195;28;19933;-70
2023/09/30 11:41:39;;;;;;;7.72;1.40;;;;;;;;;;5094293;28;20027;-70
2023/09/30 11:44:14;;;;;;;2.97;1.17;;;;;;;;;;5075681;28;20024;-70
2023/09/30 11:47:11;;;;;;;1.10;0.90;;;;;;;;;;5094082;28;20396;-70
2023/09/30 11:49:39;;;;;;;1.15;1.00;;;;;;;;;;5077755;28;20039;-70
2023/09/30 11:52:07;;;;;;;1.10;1.00;;;;;;;;;;5094031;28;20020;-70
2023/09/30 11:54:37;;;;;;;1.17;1.08;;;;;;;;;;5093897;28;20048;-70
2023/09/30 11:57:03;;;;;;;1.58;1.33;;;;;;;;;;5093508;28;20043;-70
2023/09/30 11:59:30;;;;;;;1.00;1.00;;;;;;;;;;5093831;28;20016;-70
2023/09/30 12:01:57;;;;;;;1.10;1.00;;;;;;;;;;5093853;28;20039;-70
2023/09/30 12:04:24;;;;;;;1.17;1.00;;;;;;;;;;5093829;28;20026;-70
2023/09/30 12:06:50;;;;;;;1.73;1.50;;;;;;;;;;5093793;28;20024;-70
2023/09/30 12:09:22;;;;;;;1.77;1.23;;;;;;;;;;5093666;28;20491;-70
2023/09/30 12:11:49;;;;;;;1.40;1.23;;;;;;;;;;5093264;28;20020;-71
2023/09/30 12:14:15;;;;;;;1.30;1.20;;;;;;;;;;5075732;28;20036;-70
2023/09/30 12:16:44;;;;;;;1.30;1.20;;;;;;;;;;5093376;28;20026;-70
2023/09/30 12:19:10;;;;;;;1.17;1.08;;;;;;;;;;5093532;28;20465;-70
2023/09/30 12:21:36;;;;;;;1.30;1.20;;;;;;;;;;5094001;28;20032;-70
2023/09/30 12:24:03;;;;;;;1.35;1.00;;;;;;;;;;5092729;28;20024;-71
2023/09/30 12:26:33;;;;;;;1.13;1.05;;;;;;;;;;5093306;28;20031;-71
2023/09/30 12:28:59;;;;;;;2.97;1.20;;;;;;;;;;5093389;28;20016;-71
2023/09/30 12:31:26;;;;;;;1.25;1.15;;;;;;;;;;5093302;28;20032;-71
2023/09/30 12:33:53;;;;;;;1.20;1.10;;;;;;;;;;5093320;28;20034;-70
2023/09/30 12:36:19;;;;;;;1.30;1.20;;;;;;;;;;5093222;28;20032;-71
2023/09/30 12:38:46;;;;;;;1.33;1.23;;;;;;;;;;5093158;28;20376;-71
2023/09/30 12:41:14;;;;;;;1.50;1.00;;;;;;;;;;5093124;28;20020;-71
2023/09/30 12:43:41;;;;;;;1.05;1.05;;;;;;;;;;5093530;28;20042;-71
2023/09/30 12:46:13;;;;;;;2.10;1.20;;;;;;;;;;5093117;28;20013;-71
2023/09/30 12:48:40;;;;;;;1.10;1.10;;;;;;;;;;5092984;28;20024;-69
2023/09/30 12:51:06;;;;;;;1.30;1.20;;;;;;;;;;5093334;28;20031;-68
2023/09/30 12:53:33;;;;;;;2.88;1.30;;;;;;;;;;5092841;28;20059;-69
2023/09/30 12:56:00;;;;;;;1.23;1.10;;;;;;;;;;5092565;28;20028;-69
2023/09/30 12:58:29;;;;;;;1.20;1.10;;;;;;;;;;5091748;28;20034;-68
2023/09/30 13:00:57;;;;;;;1.30;1.20;;;;;;;;;;5092959;28;20026;-68
2023/09/30 13:03:23;;;;;;;2.78;1.10;;;;;;;;;;5093095;28;20032;-68
2023/09/30 13:05:50;;;;;;;1.40;1.20;;;;;;;;;;5092846;28;20018;-71
2023/09/30 13:08:16;;;;;;;1.10;1.10;;;;;;;;;;5092874;28;20028;-71
2023/09/30 13:10:43;;;;;;;1.35;1.20;;;;;;;;;;5092389;28;20030;-71
2023/09/30 13:13:10;;;;;;;1.40;1.30;;;;;;;;;;5092812;28;20032;-71
2023/09/30 13:15:37;;;;;;;1.38;1.20;;;;;;;;;;5092520;28;20017;-70
2023/09/30 13:18:05;;;;;;;1.58;1.38;;;;;;;;;;5092700;28;20031;-71
2023/09/30 13:20:31;;;;;;;1.33;1.10;;;;;;;;;;5092557;28;20032;-71
2023/09/30 13:22:58;;;;;;;1.45;1.35;;;;;;;;;;5092709;28;20016;-71
2023/09/30 13:25:26;;;;;;;1.20;1.10;;;;;;;;;;5092281;28;20024;-71
2023/09/30 13:27:52;;;;;;;1.10;1.10;;;;;;;;;;5092456;28;20024;-71
2023/09/30 13:30:19;;;;;;;1.55;1.40;;;;;;;;;;5092880;28;20020;-71
2023/09/30 13:32:46;;;;;;;1.45;1.15;;;;;;;;;;5092606;28;20016;-71
2023/09/30 13:35:12;;;;;;;2.45;1.25;;;;;;;;;;5093704;28;20039;-71
2023/09/30 13:37:38;;;;;;;1.50;1.38;;;;;;;;;;5096761;28;20442;-71
2023/09/30 13:40:08;;;;;;;3.03;1.30;;;;;;;;;;5096386;28;20008;-71
2023/09/30 13:42:34;;;;;;;3.88;1.00;;;;;;;;;;5096486;28;20028;-71
2023/09/30 13:45:01;;;;;;;1.40;1.30;;;;;;;;;;5095677;28;20026;-71
2023/09/30 13:47:28;;;;;;;3.42;1.40;;;;;;;;;;5096474;28;20031;-71
2023/09/30 13:49:54;;;;;;;1.50;1.40;;;;;;;;;;5096668;28;20024;-71
2023/09/30 13:52:21;;;;;;;1.30;1.20;;;;;;;;;;5095409;28;20016;-71
2023/09/30 13:54:47;;;;;;;1.40;1.30;;;;;;;;;;5095845;28;20047;-71
2023/09/30 13:57:14;;;;;;;2.20;1.20;;;;;;;;;;5096285;28;20051;-71
2023/09/30 13:59:41;;;;;;;2.60;1.02;;;;;;;;;;5096456;28;20028;-71
2023/09/30 14:02:08;;;;;;;1.77;1.13;;;;;;;;;;5096219;28;20476;-71
2023/09/30 14:04:37;;;;;;;1.33;1.20;;;;;;;;;;5096099;28;20030;-71
2023/09/30 14:07:05;;;;;;;;;;;;;;;;;;5095406;28;20465;-71
2023/09/30 14:09:31;;;;;;;2.20;1.13;;;;;;;;;;5095676;28;19910;-71
2023/09/30 14:11:58;;;;;;;1.25;1.05;;;;;;;;;;5095938;28;20034;-71
2023/09/30 14:14:25;;;;;;;1.17;1.05;;;;;;;;;;5096280;28;20090;-70
2023/09/30 14:16:51;;;;;;;1.63;1.20;;;;;;;;;;5095708;28;20514;-70
2023/09/30 14:19:18;;;;;;;2.92;1.00;;;;;;;;;;5095818;28;20016;-71
2023/09/30 14:21:45;;;;;;;1.15;1.05;;;;;;;;;;5095918;28;20476;-71
2023/09/30 14:24:12;;;;;;;1.08;0.98;;;;;;;;;;5095364;28;20089;-71
2023/09/30 14:26:39;;;;;;;0.98;0.85;;;;;;;;;;5095899;28;20039;-71
2023/09/30 14:29:05;;;;;;;1.33;1.10;;;;;;;;;;5096005;28;20026;-70
2023/09/30 14:31:31;;;;;;;3.95;1.30;;;;;;;;;;5095573;28;20038;-70
2023/09/30 14:33:58;;;;;;;1.15;1.00;;;;;;;;;;5095637;28;20012;-70
2023/09/30 14:36:24;;;;;;;1.90;1.08;;;;;;;;;;5095039;28;20036;-70
2023/09/30 14:38:50;;;;;;;1.20;1.10;;;;;;;;;;5095480;28;20030;-70
2023/09/30 14:41:17;;;;;;;2.58;1.10;;;;;;;;;;5095868;28;20024;-71
2023/09/30 14:43:44;;;;;;;1.80;1.02;;;;;;;;;;5095789;28;20384;-71
2023/09/30 14:46:10;;;;;;;1.23;0.90;;;;;;;;;;5095125;28;20025;-70